Time;durP1;ratioP1;P1;durP2;ratioP2;P2;SDS_P1;SDS_P2;PMS_P1;PMS_P2;Temp;Humidity;BMP_temperature;BMP_pressure;BME280_temperature;BME280_humidity;BME280_pressure;Samples;Min_cycle;Max_cycle;Signal;HPM_P1;HPM_P2
2021/03/13 00:00:11;;;;;;;6.15;1.48;;;14.70;99.90;;;;;;5053960;28;20479;-64
2021/03/13 00:02:38;;;;;;;5.35;1.33;;;14.60;99.90;;;;;;5053756;28;20041;-64
2021/03/13 00:05:04;;;;;;;5.30;1.40;;;14.70;99.90;;;;;;5053931;28;20039;-63
2021/03/13 00:07:30;;;;;;;5.65;1.58;;;14.70;99.90;;;;;;5053724;28;20025;-64
2021/03/13 00:09:55;;;;;;;4.57;1.60;;;14.60;99.90;;;;;;5053519;28;20098;-63
2021/03/13 00:12:21;;;;;;;4.65;1.60;;;14.70;99.90;;;;;;5053344;28;20148;-63
2021/03/13 00:14:47;;;;;;;5.95;1.40;;;14.60;99.90;;;;;;5052919;28;20063;-64
2021/03/13 00:17:12;;;;;;;4.32;1.05;;;14.60;99.90;;;;;;5053380;28;20112;-64
2021/03/13 00:19:38;;;;;;;4.13;1.30;;;14.60;99.90;;;;;;5053073;28;20121;-65
2021/03/13 00:22:04;;;;;;;4.80;1.35;;;14.60;99.90;;;;;;5053595;28;20362;-65
2021/03/13 00:24:29;;;;;;;4.10;1.50;;;14.60;99.90;;;;;;5053041;28;20029;-65
2021/03/13 00:26:55;;;;;;;5.90;1.52;;;14.60;99.90;;;;;;5053027;28;20584;-65
2021/03/13 00:29:21;;;;;;;7.55;1.30;;;14.60;99.90;;;;;;5053207;28;20420;-65
2021/03/13 00:31:47;;;;;;;5.13;1.17;;;14.60;99.90;;;;;;5053259;28;20025;-65
2021/03/13 00:34:13;;;;;;;4.32;1.40;;;14.60;99.90;;;;;;5053006;28;20059;-64
2021/03/13 00:36:38;;;;;;;5.18;1.50;;;14.60;99.90;;;;;;5053190;28;20033;-65
2021/03/13 00:39:05;;;;;;;9.07;1.35;;;14.60;99.90;;;;;;5053193;28;20112;-65
2021/03/13 00:41:31;;;;;;;5.03;1.23;;;14.50;99.90;;;;;;5052894;28;20021;-64
2021/03/13 00:43:57;;;;;;;3.60;1.30;;;14.50;99.90;;;;;;5051599;28;20025;-64
2021/03/13 00:46:22;;;;;;;3.53;1.30;;;14.50;99.90;;;;;;5051884;28;20021;-65
2021/03/13 00:48:48;;;;;;;4.78;1.58;;;14.50;99.90;;;;;;5052286;28;20043;-64
2021/03/13 00:51:13;;;;;;;4.70;1.10;;;14.50;99.90;;;;;;5052637;28;20021;-64
2021/03/13 00:53:39;;;;;;;5.80;1.20;;;14.50;99.90;;;;;;5052801;28;20033;-64
2021/03/13 00:56:05;;;;;;;8.68;1.70;;;14.50;99.90;;;;;;5052803;28;20048;-64
2021/03/13 00:58:30;;;;;;;5.38;1.10;;;14.50;99.90;;;;;;5052476;28;20039;-64
2021/03/13 01:00:56;;;;;;;5.38;1.60;;;14.40;99.90;;;;;;5052521;28;20027;-64
2021/03/13 01:03:21;;;;;;;4.75;1.42;;;14.40;99.90;;;;;;5051215;28;20108;-64
2021/03/13 01:05:47;;;;;;;4.40;1.20;;;14.40;99.90;;;;;;5052463;28;20067;-65
2021/03/13 01:08:13;;;;;;;5.15;1.25;;;14.40;99.90;;;;;;5052466;28;20070;-65
2021/03/13 01:10:39;;;;;;;4.25;1.20;;;14.40;99.90;;;;;;5052602;28;20039;-65
2021/03/13 01:13:06;;;;;;;5.43;1.30;;;14.40;99.90;;;;;;5052308;28;20036;-65
2021/03/13 01:15:32;;;;;;;4.15;1.20;;;14.40;99.90;;;;;;5051919;28;20435;-64
2021/03/13 01:17:58;;;;;;;3.47;1.30;;;14.30;99.90;;;;;;5052016;28;20021;-65
2021/03/13 01:20:24;;;;;;;5.20;1.38;;;14.30;99.90;;;;;;5052281;28;20108;-65
2021/03/13 01:22:51;;;;;;;4.65;1.45;;;14.30;99.90;;;;;;5052223;28;20021;-65
2021/03/13 01:25:17;;;;;;;3.85;1.35;;;14.30;99.90;;;;;;5052106;28;20033;-65
2021/03/13 01:27:43;;;;;;;5.35;1.25;;;14.30;99.90;;;;;;5052101;28;20380;-65
2021/03/13 01:30:19;;;;;;;4.93;1.50;;;14.30;99.90;;;;;;5052381;28;20032;-64
2021/03/13 01:32:45;;;;;;;5.60;1.30;;;14.30;99.90;;;;;;5050136;28;20027;-65
2021/03/13 01:35:12;;;;;;;4.65;1.40;;;14.30;99.90;;;;;;5052301;28;20045;-65
2021/03/13 01:37:38;;;;;;;6.20;1.17;;;14.30;99.90;;;;;;5052403;28;20095;-65
2021/03/13 01:40:10;;;;;;;4.10;1.10;;;14.20;99.90;;;;;;5051859;28;20445;-63
2021/03/13 01:42:36;;;;;;;6.30;1.30;;;14.30;99.90;;;;;;5052077;28;20037;-65
2021/03/13 01:45:07;;;;;;;7.95;1.52;;;14.30;99.90;;;;;;5051647;28;20017;-63
2021/03/13 01:47:32;;;;;;;5.15;1.50;;;14.20;99.90;;;;;;5051961;28;20063;-66
2021/03/13 01:49:58;;;;;;;7.22;1.13;;;14.20;99.90;;;;;;5051627;28;20037;-66
2021/03/13 01:52:24;;;;;;;6.20;1.25;;;14.20;99.90;;;;;;5051697;28;20477;-64
2021/03/13 01:54:50;;;;;;;4.32;1.13;;;14.20;99.90;;;;;;5051681;28;20037;-64
2021/03/13 01:57:20;;;;;;;8.60;1.35;;;14.20;99.90;;;;;;5051718;28;20044;-65
2021/03/13 01:59:46;;;;;;;6.15;1.30;;;14.20;99.90;;;;;;5051607;28;20029;-63
2021/03/13 02:02:14;;;;;;;11.20;1.48;;;14.20;99.90;;;;;;5052028;28;20021;-66
2021/03/13 02:04:41;;;;;;;8.38;1.33;;;14.30;99.90;;;;;;5052039;28;20107;-64
2021/03/13 02:07:12;;;;;;;3.45;1.25;;;14.30;99.90;;;;;;5051780;28;20126;-66
2021/03/13 02:10:01;;;;;;;4.40;1.27;;;14.30;99.90;;;;;;5051780;28;20037;-64
2021/03/13 02:12:54;;;;;;;6.15;1.30;;;14.20;99.90;;;;;;5051864;28;20021;-65
2021/03/13 02:15:26;;;;;;;7.32;1.60;;;14.20;99.90;;;;;;5051228;28;20036;-65
2021/03/13 02:18:10;;;;;;;6.95;1.20;;;14.20;99.90;;;;;;5050849;28;20050;-63
2021/03/13 02:21:04;;;;;;;5.47;1.40;;;14.10;99.90;;;;;;5051530;28;20017;-64
2021/03/13 02:23:37;;;;;;;5.50;1.35;;;14.10;99.90;;;;;;5051431;28;20095;-64
2021/03/13 02:26:21;;;;;;;8.98;1.60;;;14.10;99.90;;;;;;5051383;28;20025;-63
2021/03/13 02:29:08;;;;;;;4.10;1.20;;;14.10;99.90;;;;;;5051385;28;20460;-64
2021/03/13 02:31:35;;;;;;;4.35;1.45;;;14.10;99.90;;;;;;5051465;28;20031;-64
2021/03/13 02:34:04;;;;;;;5.85;1.58;;;14.10;99.90;;;;;;5051250;28;20473;-63
2021/03/13 02:36:31;;;;;;;6.50;1.42;;;14.00;99.90;;;;;;5051402;28;20021;-63
2021/03/13 02:39:06;;;;;;;4.35;1.40;;;14.00;99.90;;;;;;5051348;28;20021;-63
2021/03/13 02:41:38;;;;;;;7.95;1.50;;;14.00;99.90;;;;;;5051556;28;20365;-64
2021/03/13 02:44:07;;;;;;;5.55;1.42;;;14.00;99.90;;;;;;5053395;28;20025;-63
2021/03/13 02:46:38;;;;;;;5.55;1.25;;;14.10;99.90;;;;;;5055039;28;20025;-63
2021/03/13 02:49:05;;;;;;;5.95;1.45;;;14.00;99.90;;;;;;5055034;28;20025;-64
2021/03/13 02:51:31;;;;;;;5.70;1.20;;;14.00;99.90;;;;;;5054992;28;20025;-64
2021/03/13 02:53:58;;;;;;;3.92;1.20;;;14.00;99.90;;;;;;5054838;28;20029;-64
2021/03/13 02:56:24;;;;;;;5.90;1.35;;;14.00;99.90;;;;;;5054949;28;20104;-64
2021/03/13 02:58:54;;;;;;;6.65;1.40;;;14.00;99.90;;;;;;5054904;28;20092;-65
2021/03/13 03:01:22;;;;;;;5.57;1.52;;;14.00;99.90;;;;;;5054663;28;20373;-64
2021/03/13 03:03:51;;;;;;;7.20;1.45;;;13.90;99.90;;;;;;5054968;28;20024;-64
2021/03/13 03:06:18;;;;;;;4.78;1.33;;;13.90;99.90;;;;;;5054599;28;20025;-65
2021/03/13 03:08:46;;;;;;;5.75;1.40;;;13.90;99.90;;;;;;5055045;28;20021;-65
2021/03/13 03:11:12;;;;;;;8.20;1.52;;;14.00;99.90;;;;;;5054872;28;20029;-63
2021/03/13 03:13:39;;;;;;;3.65;1.17;;;13.90;99.90;;;;;;5054563;28;20484;-64
2021/03/13 03:16:06;;;;;;;5.38;1.23;;;13.90;99.90;;;;;;5054612;28;20592;-65
2021/03/13 03:18:33;;;;;;;6.10;1.55;;;13.90;99.90;;;;;;5054899;28;20476;-65
2021/03/13 03:21:00;;;;;;;4.10;1.33;;;13.90;99.90;;;;;;5054487;28;20028;-64
2021/03/13 03:23:26;;;;;;;4.85;1.40;;;13.90;99.90;;;;;;5054488;28;20108;-64
2021/03/13 03:25:56;;;;;;;5.93;1.50;;;13.90;99.90;;;;;;5054409;28;20120;-65
2021/03/13 03:28:22;;;;;;;6.10;1.55;;;13.90;99.90;;;;;;5054366;28;20021;-63
2021/03/13 03:30:49;;;;;;;5.47;1.35;;;13.90;99.90;;;;;;5054437;28;20074;-65
2021/03/13 03:33:15;;;;;;;7.22;1.38;;;13.90;99.90;;;;;;5054433;28;20033;-64
2021/03/13 03:35:42;;;;;;;4.03;1.02;;;13.90;99.90;;;;;;5053924;28;20032;-63
2021/03/13 03:38:09;;;;;;;6.68;1.30;;;13.90;99.90;;;;;;5054221;28;20028;-63
2021/03/13 03:40:35;;;;;;;8.85;1.48;;;13.90;99.90;;;;;;5054090;28;20029;-63
2021/03/13 03:43:13;;;;;;;4.35;1.50;;;13.90;99.90;;;;;;5054130;28;20049;-64
2021/03/13 03:45:44;;;;;;;4.72;1.23;;;13.80;99.90;;;;;;5054117;28;20033;-63
2021/03/13 03:48:15;;;;;;;6.93;1.13;;;13.80;99.90;;;;;;5053943;28;20439;-63
2021/03/13 03:50:43;;;;;;;7.10;1.48;;;13.90;99.90;;;;;;5053984;28;20556;-64
2021/03/13 03:53:14;;;;;;;6.20;1.45;;;13.80;99.90;;;;;;5053815;28;20028;-65
2021/03/13 03:55:44;;;;;;;7.30;1.55;;;13.90;99.90;;;;;;5053464;28;20393;-63
2021/03/13 03:58:11;;;;;;;4.25;1.35;;;13.80;99.90;;;;;;5053804;28;20372;-63
2021/03/13 04:00:39;;;;;;;5.10;1.42;;;13.90;99.90;;;;;;5053514;28;20028;-63
2021/03/13 04:03:11;;;;;;;6.28;1.50;;;13.80;99.90;;;;;;5053477;28;20056;-63
2021/03/13 04:05:39;;;;;;;5.32;1.40;;;13.80;99.90;;;;;;5053741;28;20167;-63
2021/03/13 04:08:07;;;;;;;6.63;1.38;;;13.90;99.90;;;;;;5053664;28;20044;-62
2021/03/13 04:10:33;;;;;;;5.47;1.58;;;13.80;99.90;;;;;;5053629;28;20076;-63
2021/03/13 04:13:00;;;;;;;5.85;1.20;;;13.80;99.90;;;;;;5053811;28;20413;-64
2021/03/13 04:15:26;;;;;;;8.00;1.33;;;13.80;99.90;;;;;;5053390;28;20048;-63
2021/03/13 04:17:52;;;;;;;5.30;1.30;;;13.90;99.90;;;;;;5053454;28;20025;-63
2021/03/13 04:20:17;;;;;;;6.28;1.23;;;13.80;99.90;;;;;;5053643;28;20037;-62
2021/03/13 04:22:47;;;;;;;7.95;1.58;;;13.90;99.90;;;;;;5052002;28;20035;-62
2021/03/13 04:25:15;;;;;;;5.00;1.25;;;13.80;99.90;;;;;;5053272;28;20043;-64
2021/03/13 04:27:47;;;;;;;5.63;1.50;;;13.80;99.90;;;;;;5053246;28;20017;-63
2021/03/13 04:30:18;;;;;;;6.57;1.40;;;13.80;99.90;;;;;;5053008;28;20075;-63
2021/03/13 04:32:50;;;;;;;5.75;1.40;;;13.80;99.90;;;;;;5053170;28;20060;-63
2021/03/13 04:35:16;;;;;;;6.60;1.67;;;13.80;99.90;;;;;;5053081;28;20039;-61
2021/03/13 04:37:44;;;;;;;5.53;1.42;;;13.80;99.90;;;;;;5053089;28;20100;-61
2021/03/13 04:40:10;;;;;;;5.82;1.52;;;13.80;99.90;;;;;;5052598;28;20086;-62
2021/03/13 04:42:39;;;;;;;5.32;1.25;;;13.80;99.90;;;;;;5053013;28;20025;-62
2021/03/13 04:45:08;;;;;;;6.43;1.50;;;13.80;99.90;;;;;;5052886;28;20025;-61
2021/03/13 04:47:40;;;;;;;5.35;1.08;;;13.80;99.90;;;;;;5053009;28;20029;-63
2021/03/13 04:50:06;;;;;;;6.20;1.50;;;13.70;99.90;;;;;;5052876;28;20048;-63
2021/03/13 04:52:31;;;;;;;6.45;1.20;;;13.80;99.90;;;;;;5052728;28;20052;-64
2021/03/13 04:54:57;;;;;;;6.13;1.58;;;13.80;99.90;;;;;;5052727;28;20414;-60
2021/03/13 04:57:23;;;;;;;6.45;1.40;;;13.70;99.90;;;;;;5052966;28;20028;-63
2021/03/13 04:59:50;;;;;;;9.23;1.60;;;13.70;99.90;;;;;;5052647;28;20105;-63
2021/03/13 05:02:15;;;;;;;4.97;1.20;;;13.70;99.90;;;;;;5052654;28;20480;-62
2021/03/13 05:04:41;;;;;;;7.07;1.58;;;13.70;99.90;;;;;;5052539;28;20078;-62
2021/03/13 05:07:06;;;;;;;4.75;1.10;;;13.70;99.90;;;;;;5051602;28;20017;-64
2021/03/13 05:09:32;;;;;;;3.63;1.10;;;13.80;99.90;;;;;;5052347;28;20032;-62
2021/03/13 05:11:59;;;;;;;4.45;1.13;;;13.70;99.90;;;;;;5052444;28;20110;-62
2021/03/13 05:14:24;;;;;;;4.80;1.60;;;13.70;99.90;;;;;;5052422;28;20040;-62
2021/03/13 05:16:50;;;;;;;8.38;1.45;;;13.70;99.90;;;;;;5052603;28;20025;-63
2021/03/13 05:19:16;;;;;;;6.68;1.40;;;13.70;99.90;;;;;;5052375;28;20110;-62
2021/03/13 05:21:41;;;;;;;7.07;1.42;;;13.70;99.90;;;;;;5052250;28;20021;-59
2021/03/13 05:24:07;;;;;;;5.05;1.15;;;13.70;99.90;;;;;;5052250;28;20139;-61
2021/03/13 05:26:33;;;;;;;9.52;1.38;;;13.70;99.90;;;;;;5052200;28;20442;-61
2021/03/13 05:28:58;;;;;;;6.63;1.40;;;13.70;99.90;;;;;;5052091;28;20023;-61
2021/03/13 05:31:24;;;;;;;9.60;1.60;;;13.70;99.90;;;;;;5052129;28;20108;-61
2021/03/13 05:33:50;;;;;;;12.30;1.20;;;13.60;99.90;;;;;;5052145;28;20033;-61
2021/03/13 05:36:15;;;;;;;6.80;1.10;;;13.60;99.90;;;;;;5052134;28;20129;-61
2021/03/13 05:38:41;;;;;;;4.75;0.98;;;13.60;99.90;;;;;;5051820;28;20480;-61
2021/03/13 05:41:07;;;;;;;6.50;1.27;;;13.60;99.90;;;;;;5051998;28;20025;-61
2021/03/13 05:43:34;;;;;;;5.50;1.33;;;13.60;99.90;;;;;;5051911;28;20021;-63
2021/03/13 05:46:02;;;;;;;3.65;1.17;;;13.60;99.90;;;;;;5052157;28;20071;-63
2021/03/13 05:48:30;;;;;;;6.53;1.00;;;13.60;99.90;;;;;;5051838;28;20043;-63
2021/03/13 05:50:59;;;;;;;5.90;0.85;;;13.60;99.90;;;;;;5052207;28;20036;-63
2021/03/13 05:53:25;;;;;;;4.40;1.15;;;13.50;99.90;;;;;;5052239;28;20100;-63
2021/03/13 05:55:54;;;;;;;5.00;1.30;;;13.50;99.90;;;;;;5051725;28;20167;-63
2021/03/13 05:58:21;;;;;;;4.93;1.10;;;13.50;99.90;;;;;;5051773;28;20040;-64
2021/03/13 06:00:48;;;;;;;4.35;1.20;;;13.50;99.90;;;;;;5050604;28;20037;-63
2021/03/13 06:03:14;;;;;;;5.30;1.10;;;13.50;99.90;;;;;;5051587;28;20028;-63
2021/03/13 06:05:40;;;;;;;5.15;1.10;;;13.50;99.90;;;;;;5051671;28;20032;-63
2021/03/13 06:08:06;;;;;;;4.45;1.10;;;13.50;99.90;;;;;;5051881;28;20036;-63
2021/03/13 06:10:32;;;;;;;2.88;1.00;;;13.40;99.90;;;;;;5051582;28;20032;-64
2021/03/13 06:12:59;;;;;;;3.88;0.80;;;13.40;99.90;;;;;;5051688;28;20025;-63
2021/03/13 06:15:26;;;;;;;6.65;0.98;;;13.40;99.90;;;;;;5051063;28;20178;-62
2021/03/13 06:17:52;;;;;;;4.00;0.80;;;13.30;99.90;;;;;;5052324;28;20064;-62
2021/03/13 06:20:39;;;;;;;5.60;0.98;;;13.40;99.90;;;;;;5055665;28;20106;-63
2021/03/13 06:23:07;;;;;;;3.88;1.00;;;13.30;99.90;;;;;;5055587;28;20036;-62
2021/03/13 06:25:34;;;;;;;3.15;0.95;;;13.30;99.90;;;;;;5055322;28;20029;-62
2021/03/13 06:28:02;;;;;;;3.72;1.00;;;13.30;99.90;;;;;;5055203;28;20039;-63
2021/03/13 06:30:29;;;;;;;3.30;0.82;;;13.30;99.90;;;;;;5055539;28;20032;-63
2021/03/13 06:32:55;;;;;;;3.22;0.60;;;13.30;99.90;;;;;;5055790;28;20420;-62
2021/03/13 06:35:24;;;;;;;4.22;1.10;;;13.20;99.90;;;;;;5055237;28;20087;-63
2021/03/13 06:37:52;;;;;;;2.97;0.80;;;13.20;99.90;;;;;;5055569;28;20029;-62
2021/03/13 06:40:34;;;;;;;4.68;0.90;;;13.20;99.90;;;;;;5055279;28;20507;-62
2021/03/13 06:43:16;;;;;;;5.32;0.90;;;13.20;99.90;;;;;;5055306;28;20075;-62
2021/03/13 06:46:08;;;;;;;3.88;1.00;;;13.20;99.90;;;;;;5055206;28;20017;-63
2021/03/13 06:48:38;;;;;;;3.80;0.85;;;13.20;99.90;;;;;;5055133;28;20029;-63
2021/03/13 06:51:17;;;;;;;3.55;0.90;;;13.20;99.90;;;;;;5055291;28;20021;-62
2021/03/13 06:53:43;;;;;;;4.07;0.88;;;13.20;99.90;;;;;;5054889;28;20032;-63
2021/03/13 06:56:13;;;;;;;3.75;1.10;;;13.20;99.90;;;;;;5053725;28;20028;-62
2021/03/13 06:58:40;;;;;;;4.70;1.00;;;13.10;99.90;;;;;;5054651;28;20021;-63
2021/03/13 07:01:07;;;;;;;4.93;1.00;;;13.10;99.90;;;;;;5055201;28;20032;-63
2021/03/13 07:03:47;;;;;;;4.80;0.95;;;13.10;99.90;;;;;;5054969;28;20499;-62
2021/03/13 07:06:17;;;;;;;6.43;1.30;;;13.10;99.90;;;;;;5054965;28;20075;-63
2021/03/13 07:08:45;;;;;;;4.88;1.17;;;13.10;99.90;;;;;;5054826;28;20056;-62
2021/03/13 07:11:10;;;;;;;5.55;1.10;;;13.10;99.90;;;;;;5054413;28;20477;-62
2021/03/13 07:13:42;;;;;;;5.45;1.20;;;13.00;99.90;;;;;;5054945;28;20025;-62
2021/03/13 07:16:30;;;;;;;4.15;1.00;;;13.00;99.90;;;;;;5054785;28;20039;-63
2021/03/13 07:18:55;;;;;;;4.18;1.13;;;13.00;99.90;;;;;;5054912;28;20025;-62
2021/03/13 07:21:22;;;;;;;6.65;1.27;;;13.00;99.90;;;;;;5054603;28;20031;-62
2021/03/13 07:24:06;;;;;;;6.82;1.23;;;13.00;99.90;;;;;;5054400;28;20025;-62
2021/03/13 07:26:56;;;;;;;5.63;1.10;;;13.00;99.90;;;;;;5054561;28;20044;-62
2021/03/13 07:29:22;;;;;;;5.55;1.10;;;13.00;99.90;;;;;;5033921;28;20378;-61
2021/03/13 07:32:03;;;;;;;6.35;1.23;;;13.00;99.90;;;;;;5033988;28;20489;-62
2021/03/13 07:34:37;;;;;;;4.65;1.52;;;13.00;99.90;;;;;;5034892;28;20034;-63
2021/03/13 07:37:04;;;;;;;6.82;1.70;;;12.90;99.90;;;;;;5034370;28;20432;-61
2021/03/13 07:39:36;;;;;;;7.45;1.52;;;12.90;99.90;;;;;;5034653;28;20034;-62
2021/03/13 07:42:05;;;;;;;6.57;1.30;;;12.90;99.90;;;;;;5034433;28;20474;-61
2021/03/13 07:44:31;;;;;;;5.07;1.33;;;12.90;99.90;;;;;;5047414;28;20033;-62
2021/03/13 07:46:57;;;;;;;5.13;1.38;;;12.90;99.90;;;;;;5054022;28;20047;-62
2021/03/13 07:49:24;;;;;;;7.72;1.30;;;12.90;99.90;;;;;;5053941;28;20523;-61
2021/03/13 07:51:50;;;;;;;7.00;1.52;;;12.90;99.90;;;;;;5053958;28;20032;-61
2021/03/13 07:54:17;;;;;;;5.47;1.83;;;12.90;99.90;;;;;;5053786;28;20037;-61
2021/03/13 07:56:44;;;;;;;7.55;1.60;;;12.90;99.90;;;;;;5053977;28;20035;-61
2021/03/13 07:59:11;;;;;;;6.00;1.40;;;12.90;99.90;;;;;;5053875;28;20028;-62
2021/03/13 08:01:50;;;;;;;6.35;1.40;;;12.90;99.90;;;;;;5053913;28;20067;-61
2021/03/13 08:04:38;;;;;;;20.15;2.10;;;12.90;99.90;;;;;;5053772;28;20472;-63
2021/03/13 08:07:05;;;;;;;7.25;1.70;;;12.90;99.90;;;;;;5051942;28;20025;-61
2021/03/13 08:09:30;;;;;;;9.07;2.08;;;12.90;99.90;;;;;;5053839;28;20025;-62
2021/03/13 08:11:56;;;;;;;7.45;1.50;;;13.10;99.90;;;;;;5053353;28;20108;-62
2021/03/13 08:14:32;;;;;;;8.68;1.90;;;13.10;99.90;;;;;;5052776;28;20508;-62
2021/03/13 08:17:06;;;;;;;13.75;2.60;;;13.20;99.90;;;;;;5052879;28;20397;-62
2021/03/13 08:19:34;;;;;;;8.30;2.13;;;13.20;99.90;;;;;;5053604;28;20029;-62
2021/03/13 08:22:17;;;;;;;9.65;2.17;;;13.20;99.90;;;;;;5053497;28;20047;-63
2021/03/13 08:24:47;;;;;;;15.48;2.03;;;13.30;99.90;;;;;;5052724;28;20017;-61
2021/03/13 08:27:14;;;;;;;10.57;1.70;;;13.30;99.90;;;;;;5052923;28;20028;-62
2021/03/13 08:29:44;;;;;;;22.27;2.15;;;13.40;99.90;;;;;;5052695;28;20024;-62
2021/03/13 08:32:10;;;;;;;12.13;2.05;;;13.40;99.90;;;;;;5053036;28;20059;-64
2021/03/13 08:34:35;;;;;;;9.00;1.80;;;13.50;99.90;;;;;;5052882;28;20033;-66
2021/03/13 08:37:17;;;;;;;12.52;1.95;;;13.60;99.90;;;;;;5053260;28;20450;-63
2021/03/13 08:39:43;;;;;;;11.88;1.83;;;13.60;99.90;;;;;;5053252;28;20037;-65
2021/03/13 08:42:09;;;;;;;8.27;1.70;;;13.70;99.90;;;;;;5052804;28;20079;-61
2021/03/13 08:44:37;;;;;;;8.07;1.60;;;13.80;99.90;;;;;;5053188;28;20036;-68
2021/03/13 08:47:08;;;;;;;7.38;1.60;;;14.00;99.90;;;;;;5053361;28;20025;-72
2021/03/13 08:49:47;;;;;;;7.00;1.50;;;14.20;99.90;;;;;;5052945;28;20515;-66
2021/03/13 08:52:18;;;;;;;6.43;1.55;;;14.70;99.90;;;;;;5052309;28;20049;-65
2021/03/13 08:54:47;;;;;;;7.45;1.70;;;14.90;99.90;;;;;;5052914;28;20078;-67
2021/03/13 08:57:19;;;;;;;7.72;1.63;;;15.00;99.90;;;;;;5052727;28;20045;-67
2021/03/13 08:59:52;;;;;;;5.50;1.27;;;14.90;99.90;;;;;;5052626;28;20028;-65
2021/03/13 09:02:19;;;;;;;8.00;1.90;;;14.90;99.90;;;;;;5051281;28;20017;-65
2021/03/13 09:04:47;;;;;;;5.78;1.42;;;14.90;99.90;;;;;;5052612;28;20053;-67
2021/03/13 09:07:14;;;;;;;6.40;1.77;;;14.90;99.90;;;;;;5052485;28;20039;-66
2021/03/13 09:09:41;;;;;;;7.25;1.65;;;14.80;99.90;;;;;;5052318;28;20522;-66
2021/03/13 09:12:10;;;;;;;7.80;2.50;;;14.90;99.90;;;;;;5052494;28;20064;-68
2021/03/13 09:14:41;;;;;;;20.15;4.00;;;14.90;99.90;;;;;;5039518;28;20059;-71
2021/03/13 09:17:11;;;;;;;17.45;3.35;;;13.60;99.90;;;;;;5050509;28;20075;-72
2021/03/13 09:19:37;;;;;;;11.70;2.75;;;14.10;99.90;;;;;;5051227;28;20025;-69
2021/03/13 09:22:10;;;;;;;14.00;3.15;;;14.50;99.90;;;;;;5050762;28;20090;-72
2021/03/13 09:24:36;;;;;;;11.00;2.70;;;14.70;99.90;;;;;;5051613;28;20021;-69
2021/03/13 09:27:03;;;;;;;12.82;2.97;;;14.90;99.90;;;;;;5051858;28;20037;-68
2021/03/13 09:29:37;;;;;;;12.02;3.10;;;15.10;99.90;;;;;;5051385;28;20139;-68
2021/03/13 09:32:04;;;;;;;;;;;15.20;99.90;;;;;;5042112;28;20037;-69
2021/03/13 09:34:34;;;;;;;10.98;3.00;;;15.20;99.90;;;;;;5051067;28;19916;-72
2021/03/13 09:37:17;;;;;;;13.25;3.25;;;15.30;99.90;;;;;;5050750;28;20029;-71
2021/03/13 09:39:45;;;;;;;9.95;2.55;;;15.30;99.90;;;;;;5051074;28;20017;-71
2021/03/13 09:42:19;;;;;;;10.52;2.80;;;15.40;99.90;;;;;;5051364;28;20504;-70
2021/03/13 09:44:59;;;;;;;10.15;2.83;;;15.50;99.90;;;;;;5050909;28;20040;-71
2021/03/13 09:47:33;;;;;;;11.63;3.45;;;15.60;99.90;;;;;;5051302;28;20056;-72
2021/03/13 09:50:00;;;;;;;12.30;3.28;;;15.70;99.90;;;;;;5050944;28;20118;-72
2021/03/13 09:52:35;;;;;;;14.43;3.67;;;15.80;99.90;;;;;;5050593;28;20056;-71
2021/03/13 09:55:13;;;;;;;10.43;3.03;;;15.80;99.90;;;;;;5050826;28;20037;-70
2021/03/13 09:57:40;;;;;;;10.75;3.00;;;15.90;99.90;;;;;;5050600;28;20067;-69
2021/03/13 10:00:16;;;;;;;9.68;2.67;;;16.00;99.90;;;;;;5050691;28;20066;-68
2021/03/13 10:02:43;;;;;;;13.98;2.63;;;16.10;99.90;;;;;;5050878;28;20358;-68
2021/03/13 10:05:12;;;;;;;9.27;2.78;;;16.30;99.90;;;;;;5050689;28;20025;-72
2021/03/13 10:07:39;;;;;;;9.82;3.10;;;16.40;99.90;;;;;;5050720;28;20504;-68
2021/03/13 10:10:06;;;;;;;13.32;2.97;;;16.40;99.90;;;;;;5051333;28;20021;-65
2021/03/13 10:12:34;;;;;;;11.10;2.92;;;16.50;99.90;;;;;;5050481;28;20071;-65
2021/03/13 10:15:25;;;;;;;10.52;2.83;;;16.50;99.90;;;;;;5050698;28;20047;-68
2021/03/13 10:17:59;;;;;;;11.52;2.78;;;16.70;99.90;;;;;;5050697;28;20048;-66
2021/03/13 10:20:31;;;;;;;9.48;2.88;;;16.70;99.90;;;;;;5050923;28;20481;-66
2021/03/13 10:23:13;;;;;;;10.45;2.70;;;16.80;99.90;;;;;;5050709;28;20188;-67
2021/03/13 10:25:40;;;;;;;16.70;2.75;;;16.90;99.90;;;;;;5050393;28;20021;-67
2021/03/13 10:28:10;;;;;;;11.63;2.80;;;16.90;99.90;;;;;;5050281;28;20043;-68
2021/03/13 10:30:37;;;;;;;10.30;2.75;;;17.00;99.90;;;;;;5050787;28;20029;-67
2021/03/13 10:33:04;;;;;;;10.57;3.05;;;17.10;99.90;;;;;;5063547;28;20031;-68
2021/03/13 10:35:30;;;;;;;8.40;2.75;;;17.20;99.90;;;;;;5069373;28;20399;-67
2021/03/13 10:37:59;;;;;;;11.63;2.72;;;17.30;99.90;;;;;;5070581;28;20032;-65
2021/03/13 10:40:31;;;;;;;8.57;2.60;;;17.20;99.90;;;;;;5049577;28;20036;-66
2021/03/13 10:43:18;;;;;;;11.48;2.83;;;17.20;99.90;;;;;;5050051;28;20025;-64
2021/03/13 10:45:59;;;;;;;9.38;2.60;;;17.30;99.90;;;;;;5050368;28;20087;-68
2021/03/13 10:48:27;;;;;;;8.32;2.58;;;17.40;99.90;;;;;;5050536;28;20029;-68
2021/03/13 10:50:55;;;;;;;8.13;2.75;;;17.40;99.90;;;;;;5050535;28;20033;-69
2021/03/13 10:53:40;;;;;;;7.68;2.80;;;17.30;99.90;;;;;;5050120;28;20025;-67
2021/03/13 10:56:07;;;;;;;9.52;2.75;;;17.40;99.90;;;;;;5055327;28;20090;-68
2021/03/13 10:58:35;;;;;;;8.13;2.63;;;17.60;99.90;;;;;;5063442;28;20104;-67
2021/03/13 11:01:04;;;;;;;8.35;2.13;;;17.70;99.90;;;;;;5050447;28;20021;-67
2021/03/13 11:03:30;;;;;;;11.32;3.03;;;17.80;99.90;;;;;;5050482;28;20021;-65
2021/03/13 11:05:55;;;;;;;9.57;2.60;;;17.90;99.90;;;;;;5052591;28;20029;-67
2021/03/13 11:08:31;;;;;;;7.70;2.65;;;18.10;99.90;;;;;;5054248;28;20432;-67
2021/03/13 11:10:57;;;;;;;11.43;2.70;;;18.00;99.90;;;;;;5054310;28;20025;-67
2021/03/13 11:13:24;;;;;;;9.13;2.70;;;18.00;99.40;;;;;;5054009;28;20147;-67
2021/03/13 11:15:50;;;;;;;11.63;2.78;;;18.00;98.90;;;;;;5054402;28;20182;-67
2021/03/13 11:18:16;;;;;;;9.57;3.00;;;18.10;98.60;;;;;;5054491;28;20464;-67
2021/03/13 11:20:43;;;;;;;13.20;2.63;;;18.10;98.40;;;;;;5054569;28;20393;-67
2021/03/13 11:23:09;;;;;;;11.25;2.70;;;18.10;98.30;;;;;;5054450;28;20017;-67
2021/03/13 11:25:35;;;;;;;7.25;2.70;;;18.10;98.20;;;;;;5054966;28;20038;-67
2021/03/13 11:28:02;;;;;;;9.00;3.08;;;18.20;98.20;;;;;;5054479;28;20104;-67
2021/03/13 11:30:28;;;;;;;8.57;2.60;;;18.20;98.00;;;;;;5054129;28;20419;-67
2021/03/13 11:32:54;;;;;;;11.07;2.63;;;18.30;97.90;;;;;;5053538;28;20033;-65
2021/03/13 11:35:20;;;;;;;10.25;2.33;;;18.30;97.90;;;;;;5053517;28;20059;-65
2021/03/13 11:37:47;;;;;;;9.70;2.63;;;18.20;98.30;;;;;;5054203;28;20477;-65
2021/03/13 11:40:14;;;;;;;8.98;2.60;;;18.00;98.20;;;;;;5052105;28;20056;-65
2021/03/13 11:42:40;;;;;;;9.80;2.58;;;17.90;98.20;;;;;;5053242;28;20035;-65
2021/03/13 11:45:08;;;;;;;9.32;2.75;;;17.80;98.30;;;;;;5054043;28;20029;-65
2021/03/13 11:47:34;;;;;;;10.05;2.78;;;17.70;98.30;;;;;;5053076;28;20028;-65
2021/03/13 11:50:00;;;;;;;8.23;2.40;;;17.60;98.30;;;;;;5053578;28;20081;-65
2021/03/13 11:52:25;;;;;;;8.77;2.70;;;17.60;98.50;;;;;;5053862;28;20060;-65
2021/03/13 11:54:52;;;;;;;9.68;2.28;;;17.50;98.50;;;;;;5052788;28;20424;-64
2021/03/13 11:57:19;;;;;;;6.80;2.38;;;17.50;98.50;;;;;;5053651;28;20017;-65
2021/03/13 11:59:47;;;;;;;8.50;2.60;;;17.50;98.50;;;;;;5053175;28;20104;-65
2021/03/13 12:02:13;;;;;;;7.45;2.53;;;17.50;98.80;;;;;;5053272;28;20129;-65
2021/03/13 12:04:40;;;;;;;5.88;2.08;;;17.40;98.50;;;;;;5053287;28;20021;-65
2021/03/13 12:07:06;;;;;;;6.95;2.35;;;17.40;98.50;;;;;;5053992;28;20021;-65
2021/03/13 12:09:33;;;;;;;8.00;2.40;;;17.40;98.60;;;;;;5053497;28;20052;-65
2021/03/13 12:12:00;;;;;;;6.57;2.22;;;17.30;98.90;;;;;;5052585;28;20090;-65
2021/03/13 12:14:29;;;;;;;8.65;2.42;;;17.30;98.50;;;;;;5053190;28;20037;-66
2021/03/13 12:16:54;;;;;;;6.43;2.25;;;17.30;98.40;;;;;;5052660;28;20040;-64
2021/03/13 12:19:20;;;;;;;9.23;2.63;;;17.30;98.40;;;;;;5052315;28;20025;-63
2021/03/13 12:21:46;;;;;;;8.73;2.20;;;17.30;98.50;;;;;;5053351;28;20029;-64
2021/03/13 12:24:12;;;;;;;7.25;2.00;;;17.40;98.90;;;;;;5051961;28;20032;-64
2021/03/13 12:26:38;;;;;;;8.38;2.30;;;17.40;98.70;;;;;;5051864;28;20033;-64
2021/03/13 12:29:04;;;;;;;7.57;2.40;;;17.40;98.60;;;;;;5053419;28;20033;-66
2021/03/13 12:31:29;;;;;;;8.32;2.10;;;17.50;98.50;;;;;;5052441;28;20116;-65
2021/03/13 12:33:55;;;;;;;5.95;1.80;;;17.60;98.50;;;;;;5053089;28;20148;-63
2021/03/13 12:36:21;;;;;;;7.93;2.63;;;17.60;98.40;;;;;;5053085;28;20017;-63
2021/03/13 12:38:46;;;;;;;10.32;2.55;;;17.70;98.30;;;;;;5051535;28;20031;-65
2021/03/13 12:41:12;;;;;;;7.50;2.30;;;17.80;98.30;;;;;;5052920;28;20017;-65
2021/03/13 12:43:38;;;;;;;7.32;2.30;;;17.70;98.30;;;;;;5052124;28;20025;-65
2021/03/13 12:46:03;;;;;;;7.00;2.00;;;17.80;98.20;;;;;;5052099;28;20032;-65
2021/03/13 12:48:29;;;;;;;7.72;2.40;;;17.80;98.10;;;;;;5052265;28;20029;-65
2021/03/13 12:50:56;;;;;;;7.45;2.13;;;17.80;98.10;;;;;;5052984;28;20024;-63
2021/03/13 12:53:22;;;;;;;5.72;2.47;;;17.70;98.10;;;;;;5052972;28;20025;-63